Terminal Aerodrome Forecast
Issued by NWS

Home | Current Version | Previous Version | Text Only | Print | Product List | Glossary On
Versions: 1 2 3 4 5 6 7 8 9 10 11 12 13 14 15 16
398
FTUS46 KLOX 302048 AAB
TAFSBA
TAF AMD
KSBA 302048Z 3021/3118 27020G35KT P6SM SCT250
     FM302200 29020G35KT P6SM SCT250
     FM310100 33015KT P6SM SKC WS010/36040KT
     FM310900 33008KT P6SM SKC WS010/36040KT
     FM311400 32006KT P6SM SKC=

USA.gov is the U.S. government's official web portal to all federal, state and local government web resources and services.